Time;durP1;ratioP1;P1;durP2;ratioP2;P2;SDS_P1;SDS_P2;PMS_P1;PMS_P2;Temp;Humidity;BMP_temperature;BMP_pressure;BME280_temperature;BME280_humidity;BME280_pressure;Samples;Min_cycle;Max_cycle;Signal;HPM_P1;HPM_P2
2022/11/25 00:00:23;;;;;;;;;;;18.00;45.30;16.80;100743.00;;;;5056965;28;20373;-78
2022/11/25 00:02:49;;;;;;;;;;;18.00;45.30;16.80;100749.00;;;;5045757;28;19935;-78
2022/11/25 00:05:15;;;;;;;;;;;18.20;45.40;16.80;100741.00;;;;5062982;28;19919;-79
2022/11/25 00:07:40;;;;;;;;;;;18.10;45.30;16.80;100746.00;;;;5061177;28;20069;-78
2022/11/25 00:10:06;;;;;;;;;;;18.10;45.30;16.80;100746.00;;;;5058964;28;19916;-78
2022/11/25 00:12:32;;;;;;;;;;;18.10;45.30;16.80;100741.00;;;;5045049;28;19913;-78
2022/11/25 00:14:58;;;;;;;;;;;18.10;45.30;16.80;100736.00;;;;5060643;28;19916;-78
2022/11/25 00:17:23;;;;;;;;;;;18.10;45.30;16.80;100734.00;;;;5063090;28;19920;-78
2022/11/25 00:19:49;;;;;;;;;;;18.20;45.40;16.80;100727.00;;;;5046100;28;19919;-78
2022/11/25 00:22:15;;;;;;;;;;;18.10;45.30;16.80;100713.00;;;;5065298;28;19951;-78
2022/11/25 00:24:41;;;;;;;;;;;18.10;45.30;16.80;100729.00;;;;5068658;28;19974;-78
2022/11/25 00:27:07;;;;;;;;;;;18.10;45.30;16.80;100711.00;;;;5048004;28;19951;-78
2022/11/25 00:29:32;;;;;;;;;;;17.90;45.20;16.80;100713.00;;;;5065652;28;20301;-78
2022/11/25 00:31:58;;;;;;;;;;;18.10;45.30;16.80;100710.00;;;;5064845;28;19923;-78
2022/11/25 00:34:24;;;;;;;;;;;18.10;45.30;16.80;100719.00;;;;5047695;28;19916;-78
2022/11/25 00:36:52;;;;;;;;;;;18.10;45.30;16.80;100702.00;;;;5062548;28;20342;-78
2022/11/25 00:39:18;;;;;;;;;;;18.00;45.20;16.80;100703.00;;;;5063522;28;19969;-78
2022/11/25 00:44:34;;;;;;;;;;;18.00;45.20;16.80;100707.00;;;;5050336;28;19922;-77
2022/11/25 00:47:10;;;;;;;;;;;18.10;45.20;16.80;100708.00;;;;5066321;28;19912;-77
2022/11/25 00:49:36;;;;;;;;;;;18.00;45.20;16.80;100712.00;;;;5043017;28;19922;-78
2022/11/25 00:52:03;;;;;;;;;;;18.00;45.20;16.80;100701.00;;;;5067158;28;19916;-77
2022/11/25 00:54:28;;;;;;;;;;;18.00;45.20;16.80;100712.00;;;;5052122;28;19913;-77
2022/11/25 00:56:54;;;;;;;;;;;18.00;45.20;16.80;100705.00;;;;5047189;28;19917;-78
2022/11/25 00:59:20;;;;;;;;;;;18.00;45.20;16.80;100707.00;;;;5066728;28;20166;-78
2022/11/25 01:01:45;;;;;;;;;;;18.00;45.20;16.70;100701.00;;;;5062624;28;20326;-78
2022/11/25 01:04:11;;;;;;;;;;;18.00;45.20;16.70;100704.00;;;;5041235;28;19931;-78
2022/11/25 01:06:37;;;;;;;;;;;18.00;45.20;16.70;100703.00;;;;5064738;28;19920;-77
2022/11/25 01:09:04;;;;;;;;;;;18.10;45.20;16.70;100709.00;;;;5047401;28;19972;-78
2022/11/25 01:11:29;;;;;;;;;;;18.00;45.20;16.70;100707.00;;;;5045445;28;19912;-78
2022/11/25 01:13:55;;;;;;;;;;;18.00;45.20;16.70;100701.00;;;;5066699;28;19927;-77
2022/11/25 01:16:21;;;;;;;;;;;18.00;45.20;16.70;100697.00;;;;5049693;28;19912;-77
2022/11/25 01:18:47;;;;;;;;;;;18.00;45.20;16.70;100691.00;;;;5060850;28;19921;-78
2022/11/25 01:21:14;;;;;;;;;;;18.00;45.20;16.70;100691.00;;;;5051778;28;19916;-78
2022/11/25 01:23:40;;;;;;;;;;;18.00;45.20;16.70;100694.00;;;;5064265;28;19954;-78
2022/11/25 01:26:08;;;;;;;;;;;18.00;45.20;16.70;100692.00;;;;5069009;28;19971;-78
2022/11/25 01:28:34;;;;;;;;;;;18.00;45.20;16.70;100688.00;;;;5059287;28;20385;-78
2022/11/25 01:31:01;;;;;;;;;;;18.00;45.20;16.70;100689.00;;;;5044128;28;19917;-78
2022/11/25 01:33:28;;;;;;;;;;;18.10;45.20;16.70;100685.00;;;;5039812;28;19947;-78
2022/11/25 01:35:53;;;;;;;;;;;18.00;45.20;16.70;100684.00;;;;5042217;28;20288;-77
2022/11/25 01:38:19;;;;;;;;;;;18.00;45.20;16.70;100695.00;;;;5062885;28;19912;-78
2022/11/25 01:40:45;;;;;;;;;;;18.00;45.10;16.70;100690.00;;;;5061449;28;19908;-77
2022/11/25 01:43:12;;;;;;;;;;;18.00;45.10;16.70;100686.00;;;;5046178;28;19920;-78
2022/11/25 01:45:38;;;;;;;;;;;18.00;45.20;16.70;100697.00;;;;5045643;28;19947;-77
2022/11/25 01:48:19;;;;;;;;;;;18.00;45.10;16.70;100679.00;;;;5063232;28;20263;-77
2022/11/25 01:50:44;;;;;;;;;;;18.00;45.10;16.70;100683.00;;;;5043334;28;19920;-77
2022/11/25 01:53:10;;;;;;;;;;;18.00;45.10;16.70;100688.00;;;;5050318;28;19912;-77
2022/11/25 01:55:37;;;;;;;;;;;18.10;45.20;16.70;100683.00;;;;5045077;28;19917;-79
2022/11/25 01:58:09;;;;;;;;;;;18.00;45.10;16.70;100688.00;;;;5046669;28;19916;-78
2022/11/25 02:00:35;;;;;;;;;;;18.10;45.10;16.70;100681.00;;;;5049161;28;20286;-77
2022/11/25 02:03:00;;;;;;;;;;;18.00;45.10;16.70;100676.00;;;;5044999;28;19923;-77
2022/11/25 02:05:37;;;;;;;;;;;18.00;45.10;16.70;100677.00;;;;5063090;28;19916;-77
2022/11/25 02:08:03;;;;;;;;;;;18.10;45.10;16.70;100681.00;;;;5051469;28;20061;-78
2022/11/25 02:10:29;;;;;;;;;;;18.00;45.10;16.70;100683.00;;;;5047671;28;20402;-78
2022/11/25 02:12:55;;;;;;;;;;;17.90;45.00;16.70;100688.00;;;;5046478;28;19922;-78
2022/11/25 02:15:21;;;;;;;;;;;18.00;45.10;16.70;100693.00;;;;5046895;28;20270;-78
2022/11/25 02:17:47;;;;;;;;;;;17.90;45.00;16.70;100685.00;;;;5048864;28;19920;-78
2022/11/25 02:20:17;;;;;;;;;;;18.00;45.10;16.70;100676.00;;;;5029862;28;19919;-77
2022/11/25 02:23:11;;;;;;;;;;;18.00;45.10;16.70;100679.00;;;;5062170;28;20012;-77
2022/11/25 02:25:38;;;;;;;;;;;18.00;45.10;16.70;100663.00;;;;5060897;28;19912;-77
2022/11/25 02:28:06;;;;;;;;;;;17.90;45.10;16.70;100674.00;;;;5046594;28;19917;-78
2022/11/25 02:30:32;;;;;;;;;;;17.90;45.10;16.70;100680.00;;;;5032903;28;19947;-78
2022/11/25 02:32:58;;;;;;;;;;;18.00;45.10;16.70;100683.00;;;;5045673;28;19951;-78
2022/11/25 02:35:31;;;;;;;;;;;18.00;45.10;16.70;100681.00;;;;5064579;28;20273;-78
2022/11/25 02:38:11;;;;;;;;;;;17.90;45.00;16.70;100675.00;;;;5060309;28;19999;-78
2022/11/25 02:40:50;;;;;;;;;;;18.00;45.10;16.70;100677.00;;;;5060891;28;19965;-78
2022/11/25 02:43:15;;;;;;;;;;;18.00;45.10;16.70;100688.00;;;;5039812;28;19916;-78
2022/11/25 02:45:46;;;;;;;;;;;18.00;45.10;16.70;100679.00;;;;5048300;28;20359;-78
2022/11/25 02:48:12;;;;;;;;;;;18.00;45.10;16.70;100680.00;;;;5061585;28;19916;-78
2022/11/25 02:50:38;;;;;;;;;;;17.90;45.00;16.70;100673.00;;;;5061477;28;19951;-78
2022/11/25 02:53:03;;;;;;;;;;;18.00;45.10;16.70;100672.00;;;;5065706;28;19912;-78
2022/11/25 02:55:29;;;;;;;;;;;18.10;45.10;16.70;100672.00;;;;5065108;28;20455;-78
2022/11/25 02:57:55;;;;;;;;;;;18.00;45.10;16.70;100677.00;;;;5054546;28;19915;-77
2022/11/25 03:00:20;;;;;;;;;;;18.00;45.00;16.70;100675.00;;;;5063020;28;20372;-77
2022/11/25 03:02:46;;;;;;;;;;;18.00;45.00;16.70;100673.00;;;;5065086;28;19912;-77
2022/11/25 03:05:12;;;;;;;;;;;18.10;45.10;16.70;100672.00;;;;5059103;28;19919;-77
2022/11/25 03:07:38;;;;;;;;;;;18.00;45.00;16.70;100674.00;;;;5043296;28;19912;-77
2022/11/25 03:10:04;;;;;;;;;;;18.00;45.00;16.70;100675.00;;;;5058574;28;19966;-78
2022/11/25 03:12:30;;;;;;;;;;;18.00;45.00;16.70;100673.00;;;;5065263;28;19916;-77
2022/11/25 03:14:55;;;;;;;;;;;18.00;45.10;16.70;100665.00;;;;5059144;28;19939;-78
2022/11/25 03:17:21;;;;;;;;;;;17.90;44.90;16.70;100668.00;;;;5065336;28;19931;-78
2022/11/25 03:19:47;;;;;;;;;;;17.90;45.00;16.70;100670.00;;;;5045188;28;19913;-78
2022/11/25 03:22:13;;;;;;;;;;;18.10;45.00;16.70;100670.00;;;;5056959;28;20426;-77
2022/11/25 03:24:38;;;;;;;;;;;18.10;45.00;16.70;100671.00;;;;5056165;28;19913;-77
2022/11/25 03:27:04;;;;;;;;;;;18.00;45.00;16.70;100676.00;;;;5062405;28;19991;-77
2022/11/25 03:29:30;;;;;;;;;;;18.10;45.10;16.70;100669.00;;;;5039342;28;19917;-77
2022/11/25 03:31:55;;;;;;;;;;;18.00;45.00;16.70;100674.00;;;;5059565;28;20556;-77
2022/11/25 03:34:21;;;;;;;;;;;18.00;45.00;16.70;100673.00;;;;5058199;28;19923;-77
2022/11/25 03:36:47;;;;;;;;;;;18.00;45.10;16.70;100675.00;;;;5057833;28;19916;-77
2022/11/25 03:39:12;;;;;;;;;;;18.00;45.10;16.70;100668.00;;;;5048627;28;19968;-78
2022/11/25 03:41:38;;;;;;;;;;;18.00;45.00;16.70;100674.00;;;;5058988;28;19923;-77
2022/11/25 03:44:04;;;;;;;;;;;18.00;45.10;16.70;100673.00;;;;5058212;28;20385;-77
2022/11/25 03:46:30;;;;;;;;;;;18.00;45.10;16.70;100677.00;;;;5060523;28;19917;-77
2022/11/25 03:48:55;;;;;;;;;;;18.00;45.10;16.70;100672.00;;;;5059068;28;20360;-77
2022/11/25 03:51:21;;;;;;;;;;;18.00;45.10;16.70;100677.00;;;;5044865;28;19912;-78
2022/11/25 03:53:47;;;;;;;;;;;18.00;45.10;16.70;100683.00;;;;5044998;28;20356;-77
2022/11/25 03:56:12;;;;;;;;;;;18.00;45.10;16.80;100683.00;;;;5069137;28;19912;-78
2022/11/25 03:58:38;;;;;;;;;;;18.00;45.10;16.80;100685.00;;;;5061955;28;19912;-77
2022/11/25 04:01:04;;;;;;;;;;;18.00;45.10;16.80;100685.00;;;;5048477;28;20061;-77
2022/11/25 04:03:29;;;;;;;;;;;18.00;45.10;16.80;100680.00;;;;5058628;28;19916;-78
2022/11/25 04:05:55;;;;;;;;;;;18.00;45.10;16.80;100684.00;;;;5044336;28;19961;-77
2022/11/25 04:08:21;;;;;;;;;;;18.00;45.10;16.80;100684.00;;;;5062508;28;19925;-78
2022/11/25 04:10:49;;;;;;;;;;;18.10;45.10;16.80;100684.00;;;;5047981;28;19916;-78
2022/11/25 04:13:15;;;;;;;;;;;18.00;45.10;16.80;100686.00;;;;5065605;28;19931;-78
2022/11/25 04:15:48;;;;;;;;;;;18.00;45.10;16.80;100688.00;;;;5066135;28;19931;-77
2022/11/25 04:18:14;;;;;;;;;;;18.00;45.10;16.80;100691.00;;;;5035673;28;20282;-78
2022/11/25 04:20:40;;;;;;;;;;;18.00;45.10;16.80;100690.00;;;;5062975;28;19909;-78
2022/11/25 04:23:05;;;;;;;;;;;18.10;45.10;16.80;100689.00;;;;5039249;28;19916;-77
2022/11/25 04:25:32;;;;;;;;;;;18.00;45.10;16.80;100693.00;;;;5032835;28;19920;-78
2022/11/25 04:27:57;;;;;;;;;;;18.00;45.10;16.80;100694.00;;;;5034176;28;19924;-78
2022/11/25 04:30:23;;;;;;;;;;;18.00;45.10;16.80;100702.00;;;;5043845;28;19927;-78
2022/11/25 04:32:49;;;;;;;;;;;18.00;45.10;16.80;100696.00;;;;5061520;28;19912;-78
2022/11/25 04:35:14;;;;;;;;;;;18.10;45.10;16.80;100688.00;;;;5064206;28;19988;-78
2022/11/25 04:37:40;;;;;;;;;;;18.00;45.10;16.80;100701.00;;;;5064815;28;19920;-78
2022/11/25 04:40:06;;;;;;;;;;;18.00;45.10;16.80;100700.00;;;;5049855;28;20315;-78
2022/11/25 04:42:33;;;;;;;;;;;18.00;45.10;16.80;100704.00;;;;5062365;28;19913;-78
2022/11/25 04:44:59;;;;;;;;;;;18.00;45.10;16.80;100697.00;;;;5061447;28;19979;-78
2022/11/25 04:47:25;;;;;;;;;;;18.00;45.10;16.80;100703.00;;;;5049526;28;19912;-78
2022/11/25 04:49:50;;;;;;;;;;;18.00;45.10;16.80;100713.00;;;;5057742;28;19913;-78
2022/11/25 04:52:16;;;;;;;;;;;18.00;45.10;16.80;100715.00;;;;5069254;28;19912;-78
2022/11/25 04:54:42;;;;;;;;;;;18.00;45.10;16.80;100715.00;;;;5063521;28;19934;-78
2022/11/25 04:57:11;;;;;;;;;;;18.00;45.10;16.80;100715.00;;;;5044934;28;19912;-78
2022/11/25 04:59:40;;;;;;;;;;;18.00;45.10;16.80;100716.00;;;;5044403;28;20058;-78
2022/11/25 05:02:22;;;;;;;;;;;18.00;45.10;16.80;100722.00;;;;5062867;28;19913;-78
2022/11/25 05:04:48;;;;;;;;;;;18.00;45.20;16.80;100725.00;;;;5063098;28;19919;-78
2022/11/25 05:07:15;;;;;;;;;;;18.10;45.20;16.80;100729.00;;;;5050461;28;20332;-78
2022/11/25 05:09:41;;;;;;;;;;;18.10;45.20;16.70;100732.00;;;;5050121;28;20357;-77
2022/11/25 05:12:07;;;;;;;;;;;18.00;45.20;16.70;100735.00;;;;5046457;28;19935;-78
2022/11/25 05:14:34;;;;;;;;;;;18.00;45.20;16.70;100731.00;;;;5062651;28;19958;-78
2022/11/25 05:17:01;;;;;;;;;;;18.00;45.90;16.70;100725.00;;;;5051421;28;20278;-78
2022/11/25 05:19:27;;;;;;;;;;;18.00;45.20;16.80;100733.00;;;;5065995;28;20046;-78
2022/11/25 05:21:53;;;;;;;;;;;18.00;45.20;16.80;100727.00;;;;5063694;28;19912;-78
2022/11/25 05:24:18;;;;;;;;;;;18.00;45.20;16.70;100720.00;;;;5049357;28;19908;-77
2022/11/25 05:26:44;;;;;;;;;;;18.00;45.20;16.70;100718.00;;;;5048628;28;19919;-78
2022/11/25 05:29:10;;;;;;;;;;;18.00;45.20;16.70;100719.00;;;;5061548;28;19916;-78
2022/11/25 05:31:36;;;;;;;;;;;18.00;45.20;16.70;100714.00;;;;5061432;28;19962;-77
2022/11/25 05:34:01;;;;;;;;;;;18.00;45.20;16.80;100711.00;;;;5044195;28;19913;-78
2022/11/25 05:36:27;;;;;;;;;;;18.00;45.20;16.80;100712.00;;;;5045749;28;19916;-78
2022/11/25 05:38:55;;;;;;;;;;;18.00;45.20;16.80;100715.00;;;;5045005;28;19920;-78
2022/11/25 05:41:20;;;;;;;;;;;18.00;45.20;16.80;100719.00;;;;5062806;28;20505;-78
2022/11/25 05:43:46;;;;;;;;;;;18.00;45.20;16.80;100715.00;;;;5064776;28;20118;-78
2022/11/25 05:46:12;;;;;;;;;;;18.10;45.30;16.80;100721.00;;;;5061927;28;20374;-78
2022/11/25 05:48:37;;;;;;;;;;;18.00;45.20;16.80;100729.00;;;;5047114;28;20254;-77
2022/11/25 05:51:03;;;;;;;;;;;18.10;45.30;16.80;100716.00;;;;5061789;28;19908;-78
2022/11/25 05:53:29;;;;;;;;;;;18.00;45.20;16.80;100714.00;;;;5046058;28;20294;-78
2022/11/25 05:55:59;;;;;;;;;;;18.00;45.20;16.80;100712.00;;;;5043829;28;19991;-77
2022/11/25 05:58:24;;;;;;;;;;;18.00;45.30;16.80;100715.00;;;;5045990;28;19909;-78
2022/11/25 06:00:50;;;;;;;;;;;18.00;45.20;16.80;100697.00;;;;5062640;28;20279;-78
2022/11/25 06:03:16;;;;;;;;;;;18.00;45.20;16.80;100703.00;;;;5049988;28;19912;-78
2022/11/25 06:05:42;;;;;;;;;;;18.00;45.30;16.80;100714.00;;;;5049680;28;19924;-78
2022/11/25 06:08:08;;;;;;;;;;;18.10;46.00;16.80;100724.00;;;;5062518;28;19919;-78
2022/11/25 06:10:34;;;;;;;;;;;18.00;45.30;16.80;100728.00;;;;5067619;28;19916;-78
2022/11/25 06:12:59;;;;;;;;;;;18.10;45.30;16.80;100727.00;;;;5064768;28;19912;-79
2022/11/25 06:15:25;;;;;;;;;;;18.10;45.30;16.80;100731.00;;;;5063164;28;19923;-77
2022/11/25 06:17:50;;;;;;;;;;;18.10;45.30;16.80;100736.00;;;;5063002;28;19913;-78
2022/11/25 06:20:16;;;;;;;;;;;18.10;45.30;16.80;100740.00;;;;5045223;28;19927;-78
2022/11/25 06:22:42;;;;;;;;;;;18.10;45.30;16.80;100746.00;;;;5064982;28;19919;-78
2022/11/25 06:25:08;;;;;;;;;;;18.20;45.30;16.80;100747.00;;;;5067688;28;20355;-78
2022/11/25 06:27:33;;;;;;;;;;;18.10;45.30;16.80;100743.00;;;;5051288;28;19916;-78
2022/11/25 06:29:59;;;;;;;;;;;18.00;45.30;16.80;100754.00;;;;5062622;28;19916;-78
2022/11/25 06:32:25;;;;;;;;;;;18.10;45.30;16.80;100759.00;;;;5062031;28;20067;-78
2022/11/25 06:34:50;;;;;;;;;;;18.10;45.30;16.80;100759.00;;;;5061916;28;19909;-78
2022/11/25 06:37:16;;;;;;;;;;;18.00;45.30;16.80;100764.00;;;;5047219;28;19924;-78
2022/11/25 06:39:42;;;;;;;;;;;18.00;45.30;16.80;100780.00;;;;5064107;28;19919;-78
2022/11/25 06:42:08;;;;;;;;;;;18.00;45.30;16.80;100774.00;;;;5044578;28;19912;-78
2022/11/25 06:44:33;;;;;;;;;;;18.00;45.30;16.80;100775.00;;;;5063492;28;20397;-78
2022/11/25 06:46:59;;;;;;;;;;;18.10;45.40;16.80;100778.00;;;;5046720;28;19908;-78
2022/11/25 06:49:25;;;;;;;;;;;18.10;45.40;16.80;100800.00;;;;5063062;28;19928;-78
2022/11/25 06:51:50;;;;;;;;;;;18.10;45.40;16.80;100792.00;;;;5054717;28;19931;-78
2022/11/25 06:54:16;;;;;;;;;;;18.10;45.40;16.80;100799.00;;;;5063627;28;20377;-78
2022/11/25 06:56:42;;;;;;;;;;;18.20;45.40;16.80;100790.00;;;;5041474;28;19912;-78
2022/11/25 06:59:08;;;;;;;;;;;18.10;45.40;16.80;100801.00;;;;5042295;28;19915;-77
2022/11/25 07:01:33;;;;;;;;;;;18.10;45.40;16.80;100810.00;;;;5056089;28;19913;-78
2022/11/25 07:04:03;;;;;;;;;;;18.10;45.40;16.80;100801.00;;;;5040525;28;19916;-78
2022/11/25 07:06:29;;;;;;;;;;;18.10;45.40;16.80;100809.00;;;;5061124;28;20084;-78
2022/11/25 07:08:55;;;;;;;;;;;18.00;45.40;16.80;100811.00;;;;5020978;28;19981;-78
2022/11/25 07:11:26;;;;;;;;;;;18.10;45.40;16.80;100814.00;;;;5046073;28;19940;-78
2022/11/25 07:13:53;;;;;;;;;;;18.10;45.40;16.80;100819.00;;;;5043998;28;20251;-78
2022/11/25 07:16:18;;;;;;;;;;;18.00;45.40;16.80;100827.00;;;;5060933;28;20377;-78
2022/11/25 07:18:44;;;;;;;;;;;18.10;45.40;16.80;100833.00;;;;5042304;28;19913;-78
2022/11/25 07:21:11;;;;;;;;;;;18.10;45.50;16.80;100836.00;;;;5038308;28;20286;-78
2022/11/25 07:23:37;;;;;;;;;;;18.10;45.50;16.80;100837.00;;;;5061030;28;20201;-78
2022/11/25 07:26:07;;;;;;;;;;;18.00;45.40;16.80;100844.00;;;;5062033;28;19912;-78
2022/11/25 07:28:33;;;;;;;;;;;18.10;45.50;16.80;100845.00;;;;5047945;28;19924;-77
2022/11/25 07:31:06;;;;;;;;;;;18.10;45.50;16.80;100845.00;;;;5062118;28;19959;-77
2022/11/25 07:33:31;;;;;;;;;;;18.10;45.50;16.80;100844.00;;;;5041278;28;19916;-78
2022/11/25 07:36:01;;;;;;;;;;;18.10;45.50;16.80;100849.00;;;;5048342;28;19917;-77
2022/11/25 07:38:27;;;;;;;;;;;18.10;45.50;16.80;100853.00;;;;5062289;28;19916;-78
2022/11/25 07:40:52;;;;;;;;;;;18.10;45.50;16.80;100860.00;;;;5063098;28;19963;-78
2022/11/25 07:43:18;;;;;;;;;;;18.10;45.50;16.80;100870.00;;;;5059947;28;19912;-78
2022/11/25 07:45:44;;;;;;;;;;;18.10;45.50;16.80;100857.00;;;;5063590;28;19949;-78
2022/11/25 07:48:09;;;;;;;;;;;18.20;45.50;16.80;100874.00;;;;5059569;28;20298;-78
2022/11/25 07:50:35;;;;;;;;;;;18.10;45.50;16.80;100876.00;;;;5047755;28;19916;-78
2022/11/25 07:53:01;;;;;;;;;;;18.10;45.50;16.80;100869.00;;;;5067006;28;19912;-78
2022/11/25 07:55:26;;;;;;;;;;;18.10;45.50;16.80;100866.00;;;;5051389;28;19912;-78
2022/11/25 07:57:52;;;;;;;;;;;18.10;45.50;16.80;100871.00;;;;5063272;28;19913;-78
2022/11/25 08:00:18;;;;;;;;;;;18.10;45.50;16.80;100866.00;;;;5061569;28;20307;-78
2022/11/25 08:02:44;;;;;;;;;;;18.10;45.50;16.80;100869.00;;;;5062200;28;19920;-78
2022/11/25 08:05:10;;;;;;;;;;;18.10;45.50;16.80;100869.00;;;;5062966;28;19916;-78
2022/11/25 08:07:36;;;;;;;;;;;18.10;45.50;16.80;100876.00;;;;5064617;28;20370;-78
2022/11/25 08:10:02;;;;;;;;;;;18.10;45.50;16.80;100884.00;;;;5047197;28;19970;-78
2022/11/25 08:12:27;;;;;;;;;;;18.10;45.60;16.80;100886.00;;;;5044746;28;20354;-78
2022/11/25 08:14:53;;;;;;;;;;;18.10;45.60;16.80;100891.00;;;;5065550;28;19912;-79
2022/11/25 08:17:19;;;;;;;;;;;18.10;45.60;16.80;100892.00;;;;5050207;28;19912;-78
2022/11/25 08:19:44;;;;;;;;;;;18.10;45.60;16.80;100890.00;;;;5064875;28;20403;-78
2022/11/25 08:22:10;;;;;;;;;;;18.10;45.50;16.80;100889.00;;;;5059365;28;19917;-78
2022/11/25 08:24:36;;;;;;;;;;;18.10;45.60;16.80;100891.00;;;;5059715;28;19917;-78
2022/11/25 08:27:01;;;;;;;;;;;18.20;45.60;16.80;100896.00;;;;5067372;28;19925;-78
2022/11/25 08:29:27;;;;;;;;;;;18.10;45.60;16.80;100894.00;;;;5060363;28;19920;-78
2022/11/25 08:31:53;;;;;;;;;;;18.10;45.60;16.80;100895.00;;;;5063509;28;19920;-79
2022/11/25 08:34:20;;;;;;;;;;;18.20;45.70;16.80;100895.00;;;;5047156;28;19932;-78
2022/11/25 08:36:46;;;;;;;;;;;18.10;45.60;16.80;100894.00;;;;5042149;28;19948;-78
2022/11/25 08:39:12;;;;;;;;;;;18.10;45.60;16.90;100897.00;;;;5049948;28;19916;-78
2022/11/25 08:41:37;;;;;;;;;;;18.20;45.70;16.80;100896.00;;;;5047339;28;20483;-79
2022/11/25 08:44:05;;;;;;;;;;;18.10;45.60;16.80;100900.00;;;;5062671;28;20277;-78
2022/11/25 08:46:35;;;;;;;;;;;18.10;45.70;16.80;100909.00;;;;5048554;28;19912;-78
2022/11/25 08:49:01;;;;;;;;;;;18.10;45.60;16.80;100913.00;;;;5029070;28;20015;-78
2022/11/25 08:51:28;;;;;;;;;;;18.20;45.70;16.80;100909.00;;;;5062117;28;19966;-78
2022/11/25 08:53:54;;;;;;;;;;;18.10;45.70;16.80;100918.00;;;;5046105;28;19917;-78
2022/11/25 08:56:20;;;;;;;;;;;18.10;45.70;16.80;100920.00;;;;5048147;28;20356;-78
2022/11/25 08:58:47;;;;;;;;;;;18.10;45.70;16.80;100918.00;;;;5040688;28;19975;-78
2022/11/25 09:01:13;;;;;;;;;;;18.10;45.70;16.80;100929.00;;;;5045190;28;19920;-78
2022/11/25 09:03:40;;;;;;;;;;;18.10;45.70;16.80;100929.00;;;;5061021;28;19966;-78
2022/11/25 09:06:06;;;;;;;;;;;18.10;45.80;16.80;100936.00;;;;5048149;28;19912;-78
2022/11/25 09:08:32;;;;;;;;;;;18.10;45.70;16.80;100932.00;;;;5035375;28;19924;-77
2022/11/25 09:10:58;;;;;;;;;;;18.10;45.70;16.90;100939.00;;;;5064295;28;19912;-78
2022/11/25 09:13:23;;;;;;;;;;;18.10;45.70;16.90;100938.00;;;;5049999;28;19916;-78
2022/11/25 09:15:49;;;;;;;;;;;18.20;45.80;16.90;100940.00;;;;5043750;28;19917;-78
2022/11/25 09:18:17;;;;;;;;;;;18.20;45.80;16.90;100948.00;;;;5043935;28;19913;-78
2022/11/25 09:20:43;;;;;;;;;;;18.10;45.70;16.90;100947.00;;;;5063723;28;19920;-78
2022/11/25 09:23:09;;;;;;;;;;;18.10;45.70;16.90;100943.00;;;;5059375;28;20337;-78
2022/11/25 09:25:34;;;;;;;;;;;18.10;45.70;16.90;100951.00;;;;5067627;28;19908;-77
2022/11/25 09:28:03;;;;;;;;;;;18.10;45.70;16.90;100960.00;;;;5048997;28;19920;-78
2022/11/25 09:30:28;;;;;;;;;;;18.20;45.80;16.90;100958.00;;;;5059424;28;19916;-78
2022/11/25 09:32:54;;;;;;;;;;;18.30;45.80;16.90;100961.00;;;;5045131;28;20274;-78
2022/11/25 09:35:20;;;;;;;;;;;18.20;45.80;16.90;100959.00;;;;5048504;28;19913;-78
2022/11/25 09:37:46;;;;;;;;;;;18.20;46.50;16.90;100961.00;;;;5063904;28;19939;-79
2022/11/25 09:40:35;;;;;;;;;;;18.20;45.80;16.90;100964.00;;;;5043195;28;19913;-78
2022/11/25 09:49:02;;;;;;;;;;;18.20;45.80;16.80;100971.00;;;;5048504;28;19924;-78
2022/11/25 09:51:53;;;;;;;;;;;18.10;45.70;16.80;100975.00;;;;5048226;28;20279;-78
2022/11/25 09:54:31;;;;;;;;;;;18.10;45.80;16.80;100972.00;;;;5058507;28;19912;-78
2022/11/25 09:57:14;;;;;;;;;;;18.10;45.80;16.80;100975.00;;;;5041349;28;20003;-78
2022/11/25 10:00:04;;;;;;;;;;;18.10;45.80;16.80;100970.00;;;;5057272;28;19919;-78
2022/11/25 10:02:37;;;;;;;;;;;18.10;45.90;16.80;100969.00;;;;5029295;28;20378;-79
2022/11/25 10:05:26;;;;;;;;;;;18.10;45.90;16.80;100980.00;;;;5043269;28;19913;-78
2022/11/25 10:07:53;;;;;;;;;;;18.10;45.90;16.80;100984.00;;;;5047571;28;20294;-78
2022/11/25 10:10:24;;;;;;;;;;;18.10;46.00;16.80;100984.00;;;;5047168;28;20213;-78
2022/11/25 10:12:50;;;;;;;;;;;18.10;45.90;16.90;100985.00;;;;5061060;28;19981;-78
2022/11/25 10:15:39;;;;;;;;;;;18.10;46.00;16.90;100991.00;;;;5049087;28;19991;-78
2022/11/25 10:18:09;;;;;;;;;;;18.10;46.00;16.90;100995.00;;;;5040054;28;20280;-78
2022/11/25 10:20:36;;;;;;;;;;;18.10;46.00;16.80;100999.00;;;;5041035;28;19917;-78
2022/11/25 10:23:20;;;;;;;;;;;18.30;46.10;16.80;101005.00;;;;5041161;28;19917;-78
2022/11/25 10:25:47;;;;;;;;;;;18.20;46.10;16.80;101009.00;;;;5044082;28;20023;-78
2022/11/25 10:28:23;;;;;;;;;;;18.20;46.10;16.80;101012.00;;;;5060579;28;20007;-78
2022/11/25 10:30:58;;;;;;;;;;;18.10;46.20;16.80;101020.00;;;;5044254;28;20365;-78
2022/11/25 10:33:44;;;;;;;;;;;18.10;46.10;16.80;101019.00;;;;5058877;28;19944;-78
2022/11/25 10:36:23;;;;;;;;;;;18.00;46.10;16.80;101021.00;;;;5050901;28;19916;-79
2022/11/25 10:39:10;;;;;;;;;;;18.10;46.10;16.80;101021.00;;;;5047510;28;19975;-78
2022/11/25 10:41:51;;;;;;;;;;;18.10;46.10;16.80;101034.00;;;;5060796;28;20010;-79
2022/11/25 10:44:36;;;;;;;;;;;18.00;46.20;16.80;101033.00;;;;5042835;28;19935;-78
2022/11/25 10:47:11;;;;;;;;;;;18.10;46.30;16.80;101023.00;;;;5042453;28;19920;-78
2022/11/25 10:50:01;;;;;;;;;;;18.10;46.30;16.70;101020.00;;;;5038762;28;19917;-79
2022/11/25 10:52:29;;;;;;;;;;;18.10;46.40;16.70;101030.00;;;;5060234;28;20366;-79
2022/11/25 10:55:11;;;;;;;;;;;18.10;46.30;16.80;101034.00;;;;5040829;28;19957;-78
2022/11/25 10:57:37;;;;;;;;;;;18.10;46.30;16.80;101031.00;;;;5063677;28;20282;-79
2022/11/25 11:00:03;;;;;;;;;;;18.10;46.30;16.80;101024.00;;;;5063720;28;19916;-79
2022/11/25 11:02:38;;;;;;;;;;;18.10;46.30;16.80;101037.00;;;;5025995;28;20019;-78
2022/11/25 11:05:07;;;;;;;;;;;18.10;46.40;16.80;101041.00;;;;5060366;28;19912;-78
2022/11/25 11:07:35;;;;;;;;;;;18.10;46.40;16.70;101035.00;;;;5058610;28;19912;-79
2022/11/25 11:10:13;;;;;;;;;;;18.10;46.40;16.70;101041.00;;;;5038510;28;19978;-79
2022/11/25 11:12:56;;;;;;;;;;;18.10;46.40;16.70;101042.00;;;;5058091;28;19919;-77
2022/11/25 11:15:34;;;;;;;;;;;18.00;46.40;16.70;101046.00;;;;5046339;28;19924;-77
2022/11/25 11:18:18;;;;;;;;;;;18.10;46.40;16.80;101042.00;;;;5047174;28;20346;-77
2022/11/25 11:20:50;;;;;;;;;;;18.10;46.40;16.80;101052.00;;;;5052277;28;20361;-77
2022/11/25 11:23:16;;;;;;;;;;;18.10;46.40;16.80;101052.00;;;;5062117;28;19912;-77
2022/11/25 11:25:59;;;;;;;;;;;18.00;46.40;16.80;101053.00;;;;5060480;28;20329;-77
2022/11/25 11:28:37;;;;;;;;;;;18.10;46.40;16.80;101050.00;;;;5046896;28;19920;-76
2022/11/25 11:31:14;;;;;;;;;;;18.10;46.40;16.80;101055.00;;;;5063244;28;19916;-76
2022/11/25 11:33:48;;;;;;;;;;;18.10;46.40;16.80;101068.00;;;;5042387;28;19913;-76
2022/11/25 11:36:45;;;;;;;;;;;18.10;46.40;16.80;101069.00;;;;5045706;28;19913;-76
2022/11/25 11:39:36;;;;;;;;;;;18.10;46.50;16.80;101069.00;;;;5058714;28;19965;-76
2022/11/25 11:42:18;;;;;;;;;;;18.10;46.40;16.80;101077.00;;;;5065196;28;19948;-76
2022/11/25 11:44:56;;;;;;;;;;;18.10;46.40;16.80;101078.00;;;;5033239;28;20007;-76
2022/11/25 11:47:57;;;;;;;;;;;18.10;46.40;16.80;101072.00;;;;5057981;28;19916;-76
2022/11/25 11:50:26;;;;;;;;;;;18.10;46.40;16.80;101081.00;;;;5015703;28;19920;-76
2022/11/25 11:53:19;;;;;;;;;;;18.10;46.40;16.80;101086.00;;;;5042904;28;20247;-76
2022/11/25 11:56:06;;;;;;;;;;;18.10;46.50;16.80;101087.00;;;;5059123;28;19921;-76
2022/11/25 11:58:41;;;;;;;;;;;18.20;46.50;16.80;101090.00;;;;5039759;28;19918;-76
2022/11/25 12:01:21;;;;;;;;;;;18.20;46.50;16.80;101090.00;;;;5062067;28;20270;-76
2022/11/25 12:03:55;;;;;;;;;;;18.20;46.50;16.80;101093.00;;;;5057242;28;19974;-76
2022/11/25 12:06:21;;;;;;;;;;;18.20;46.50;16.80;101102.00;;;;5041735;28;19913;-74